createdAt,value
2023-03-06T00:00:50.808Z,35.62
2023-03-06T00:03:17.590Z,34.95
2023-03-06T00:05:44.336Z,36.00
2023-03-06T00:08:16.634Z,35.93
2023-03-06T00:10:43.762Z,37.30
2023-03-06T00:13:12.896Z,36.50
2023-03-06T00:15:39.652Z,37.31
2023-03-06T00:18:06.852Z,37.67
2023-03-06T00:20:33.917Z,38.04
2023-03-06T00:23:00.974Z,38.84
2023-03-06T00:25:28.770Z,38.85
2023-03-06T00:27:58.240Z,39.21
2023-03-06T00:30:25.487Z,40.69
2023-03-06T00:32:52.598Z,39.59
2023-03-06T00:35:20.592Z,39.54
2023-03-06T00:37:48.048Z,41.37
2023-03-06T00:40:16.719Z,42.21
2023-03-06T00:42:46.883Z,42.79
2023-03-06T00:45:13.776Z,42.80
2023-03-06T00:47:40.838Z,43.27
2023-03-06T00:50:10.688Z,44.50
2023-03-06T00:52:37.504Z,45.64
2023-03-06T00:55:06.541Z,45.82
2023-03-06T00:57:33.288Z,45.68
2023-03-06T01:00:00.524Z,45.46
2023-03-06T01:02:27.343Z,47.99
2023-03-06T01:04:54.139Z,46.09
2023-03-06T01:07:23.618Z,46.53
2023-03-06T01:09:50.642Z,47.59
2023-03-06T01:12:19.287Z,47.61
2023-03-06T01:14:48.678Z,47.64
2023-03-06T01:17:16.214Z,47.78
2023-03-06T01:19:45.785Z,47.31
2023-03-06T01:22:12.723Z,47.46
2023-03-06T01:24:42.565Z,48.42
2023-03-06T01:27:09.825Z,47.90
2023-03-06T01:29:39.034Z,48.78
2023-03-06T01:32:07.562Z,48.91
2023-03-06T01:34:34.509Z,47.38
2023-03-06T01:37:01.771Z,47.91
2023-03-06T01:39:28.517Z,48.44
2023-03-06T01:41:55.217Z,48.56
2023-03-06T01:44:22.239Z,48.58
2023-03-06T01:46:50.473Z,47.44
2023-03-06T01:49:41.348Z,47.40
2023-03-06T01:52:13.226Z,46.51
2023-03-06T01:54:54.583Z,47.00
2023-03-06T01:57:26.598Z,47.72
2023-03-06T01:59:56.458Z,47.01
2023-03-06T02:02:23.657Z,48.18
2023-03-06T02:04:52.242Z,48.89
2023-03-06T02:07:20.322Z,47.92
2023-03-06T02:09:47.070Z,48.23
2023-03-06T02:12:16.654Z,47.68
2023-03-06T02:14:43.677Z,46.73
2023-03-06T02:17:11.191Z,48.57
2023-03-06T02:20:11.836Z,49.42
2023-03-06T02:22:54.661Z,48.21
2023-03-06T02:25:34.564Z,49.33
2023-03-06T02:28:01.542Z,49.37
2023-03-06T02:30:29.092Z,49.50
2023-03-06T02:32:56.189Z,50.01
2023-03-06T02:35:25.579Z,49.02
2023-03-06T02:37:53.091Z,49.57
2023-03-06T02:40:21.335Z,48.65
2023-03-06T02:42:50.177Z,48.06
2023-03-06T02:45:44.423Z,49.06
2023-03-06T02:48:12.377Z,48.80
2023-03-06T02:50:40.177Z,48.79
2023-03-06T02:53:07.369Z,47.93
2023-03-06T02:55:34.490Z,48.44
2023-03-06T02:58:01.707Z,48.90
2023-03-06T03:00:34.611Z,48.82
2023-03-06T03:03:01.544Z,48.78
2023-03-06T03:05:28.290Z,49.40
2023-03-06T03:07:55.024Z,48.83
2023-03-06T03:10:22.130Z,48.25
2023-03-06T03:12:50.769Z,48.95
2023-03-06T03:15:23.846Z,48.64
2023-03-06T03:17:50.581Z,47.95
2023-03-06T03:20:18.951Z,48.60
2023-03-06T03:22:53.346Z,49.00
2023-03-06T03:25:22.611Z,49.76
2023-03-06T03:27:54.257Z,50.35
2023-03-06T03:30:24.035Z,48.60
2023-03-06T03:32:53.558Z,48.40
2023-03-06T03:35:20.372Z,48.70
2023-03-06T03:37:47.165Z,48.96
2023-03-06T03:40:14.388Z,50.27
2023-03-06T03:42:41.098Z,50.84
2023-03-06T03:45:08.182Z,50.64
2023-03-06T03:47:36.862Z,50.67
2023-03-06T03:50:04.622Z,51.85
2023-03-06T03:52:31.394Z,50.54
2023-03-06T03:54:59.152Z,49.50
2023-03-06T03:57:25.925Z,51.24
2023-03-06T03:59:53.542Z,51.14
2023-03-06T04:02:21.021Z,50.93
2023-03-06T04:04:49.300Z,50.94
2023-03-06T04:07:18.840Z,50.50
2023-03-06T04:09:46.340Z,50.72
2023-03-06T04:12:13.467Z,50.87
2023-03-06T04:14:40.208Z,51.59
2023-03-06T04:17:06.909Z,50.37
2023-03-06T04:19:34.966Z,50.65
2023-03-06T04:22:02.589Z,50.39
2023-03-06T04:24:33.104Z,50.34
2023-03-06T04:26:59.823Z,51.82
2023-03-06T04:29:27.878Z,49.44
2023-03-06T04:31:55.169Z,50.83
2023-03-06T04:34:27.349Z,48.89
2023-03-06T04:36:54.566Z,49.99
2023-03-06T04:39:21.675Z,50.55
2023-03-06T04:41:48.423Z,50.65
2023-03-06T04:44:16.313Z,50.27
2023-03-06T04:46:45.874Z,50.23
2023-03-06T04:49:17.821Z,50.37
2023-03-06T04:51:44.847Z,50.31
2023-03-06T04:54:11.575Z,51.35
2023-03-06T04:56:40.020Z,50.55
2023-03-06T04:59:07.586Z,50.79
2023-03-06T05:01:34.361Z,50.24
2023-03-06T05:04:01.145Z,51.27
2023-03-06T05:06:28.221Z,50.82
2023-03-06T05:08:54.941Z,52.33
2023-03-06T05:11:23.612Z,50.95
2023-03-06T05:13:50.497Z,50.74
2023-03-06T05:16:20.110Z,49.99
2023-03-06T05:18:50.201Z,50.77
2023-03-06T05:21:17.472Z,50.33
2023-03-06T05:23:44.570Z,50.82
2023-03-06T05:26:12.867Z,50.59
2023-03-06T05:28:40.009Z,51.74
2023-03-06T05:31:08.794Z,51.39
2023-03-06T05:33:36.003Z,50.31
2023-03-06T05:36:02.757Z,51.32
2023-03-06T05:38:29.829Z,51.35
2023-03-06T05:40:56.606Z,50.43
2023-03-06T05:43:26.323Z,51.70
2023-03-06T05:46:00.657Z,51.75
2023-03-06T05:48:27.773Z,51.22
2023-03-06T05:50:58.292Z,50.81
2023-03-06T05:53:25.034Z,51.17
2023-03-06T05:55:59.034Z,52.06
2023-03-06T05:58:26.429Z,52.09
2023-03-06T06:00:53.183Z,52.01
2023-03-06T06:03:21.245Z,51.14
2023-03-06T06:05:49.463Z,51.88
2023-03-06T06:08:20.017Z,51.59
2023-03-06T06:10:47.384Z,51.33
2023-03-06T06:13:14.842Z,53.20
2023-03-06T06:15:41.977Z,52.73
2023-03-06T06:18:11.517Z,51.11
2023-03-06T06:20:38.417Z,51.24
2023-03-06T06:23:06.460Z,50.85
2023-03-06T06:25:33.933Z,51.14
2023-03-06T06:28:01.053Z,51.99
2023-03-06T06:30:27.771Z,49.95
2023-03-06T06:32:54.478Z,50.62
2023-03-06T06:35:21.194Z,50.93
2023-03-06T06:37:48.294Z,51.58
2023-03-06T06:40:16.452Z,50.64
2023-03-06T06:42:44.320Z,51.25
2023-03-06T06:45:11.377Z,51.24
2023-03-06T06:47:39.798Z,50.80
2023-03-06T06:50:07.794Z,50.13
2023-03-06T06:52:34.476Z,48.39
2023-03-06T06:55:01.248Z,48.91
2023-03-06T06:57:28.562Z,49.96
2023-03-06T06:59:55.289Z,48.25
2023-03-06T07:02:22.065Z,49.37
2023-03-06T07:05:02.924Z,50.33
2023-03-06T07:07:33.045Z,50.21
2023-03-06T07:10:08.733Z,49.35
2023-03-06T07:12:38.412Z,48.09
2023-03-06T07:15:06.212Z,46.97
2023-03-06T07:17:32.994Z,48.09
2023-03-06T07:19:59.798Z,47.46
2023-03-06T07:22:26.873Z,46.44
2023-03-06T07:24:53.586Z,47.44
2023-03-06T07:27:22.220Z,47.10
2023-03-06T07:29:48.992Z,46.94
2023-03-06T07:32:17.262Z,47.44
2023-03-06T07:34:44.285Z,45.99
2023-03-06T07:37:12.012Z,47.39
2023-03-06T07:39:39.091Z,47.39
2023-03-06T07:42:06.800Z,47.86
2023-03-06T07:44:40.050Z,47.96
2023-03-06T07:47:07.004Z,48.61
2023-03-06T07:49:34.661Z,46.81
2023-03-06T07:52:01.471Z,48.05
2023-03-06T07:54:31.473Z,47.14
2023-03-06T07:57:02.869Z,47.09
2023-03-06T07:59:29.584Z,47.03
2023-03-06T08:01:56.330Z,48.29
2023-03-06T08:04:27.439Z,48.30
2023-03-06T08:06:55.656Z,48.59
2023-03-06T08:09:22.919Z,47.97
2023-03-06T08:11:50.993Z,48.66
2023-03-06T08:14:18.348Z,47.68
2023-03-06T08:16:45.457Z,47.51
2023-03-06T08:19:12.188Z,47.18
2023-03-06T08:21:39.298Z,47.31
2023-03-06T08:24:07.490Z,47.29
2023-03-06T08:26:34.421Z,48.99
2023-03-06T08:29:01.777Z,47.61
2023-03-06T08:31:48.557Z,47.35
2023-03-06T08:34:17.135Z,46.49
2023-03-06T08:36:43.926Z,47.15
2023-03-06T08:39:13.964Z,46.39
2023-03-06T08:41:40.847Z,46.15
2023-03-06T08:44:07.687Z,47.42
2023-03-06T08:46:34.386Z,46.67
2023-03-06T08:49:01.750Z,45.83
2023-03-06T08:51:29.758Z,46.57
2023-03-06T08:53:58.681Z,46.48
2023-03-06T08:56:49.256Z,48.23
2023-03-06T08:59:17.001Z,48.26
2023-03-06T09:01:43.981Z,47.80
2023-03-06T09:04:11.787Z,47.36
2023-03-06T09:06:42.473Z,47.38
2023-03-06T09:09:12.123Z,46.66
2023-03-06T09:11:40.269Z,46.88
2023-03-06T09:14:07.145Z,46.71
2023-03-06T09:16:34.228Z,46.49
2023-03-06T09:19:00.986Z,44.84
2023-03-06T09:21:29.010Z,45.23
2023-03-06T09:23:55.869Z,44.82
2023-03-06T09:26:39.500Z,44.13
2023-03-06T09:29:10.447Z,43.39
2023-03-06T09:31:37.188Z,43.69
2023-03-06T09:34:04.138Z,42.77
2023-03-06T09:36:45.643Z,42.78
2023-03-06T09:39:23.309Z,43.25
2023-03-06T09:41:53.813Z,42.96
2023-03-06T09:44:27.810Z,42.83
2023-03-06T09:47:49.669Z,42.46
2023-03-06T09:50:46.209Z,42.00
2023-03-06T09:53:30.653Z,40.65
2023-03-06T09:56:01.166Z,41.18
2023-03-06T09:58:29.270Z,40.83
2023-03-06T10:01:21.852Z,39.83
2023-03-06T10:03:59.780Z,39.55
2023-03-06T10:06:37.173Z,40.21
2023-03-06T10:09:23.206Z,40.09
2023-03-06T10:11:57.120Z,39.31
2023-03-06T10:14:35.107Z,39.70
2023-03-06T10:17:02.043Z,37.79
2023-03-06T10:19:36.776Z,38.49
2023-03-06T10:22:26.050Z,38.47
2023-03-06T10:25:01.919Z,36.33
2023-03-06T10:27:46.284Z,37.89
2023-03-06T10:30:34.881Z,34.62
2023-03-06T10:33:13.247Z,34.16
2023-03-06T10:35:49.379Z,32.00
2023-03-06T10:38:26.825Z,32.84
2023-03-06T10:41:31.470Z,34.42
2023-03-06T10:44:01.666Z,33.16
2023-03-06T10:46:50.185Z,34.25
2023-03-06T10:49:31.370Z,33.14
2023-03-06T10:52:09.998Z,33.76
2023-03-06T10:54:37.991Z,32.87
2023-03-06T10:57:24.804Z,30.84
2023-03-06T10:59:56.827Z,30.32
2023-03-06T11:02:33.493Z,31.47
2023-03-06T11:05:00.795Z,33.58
2023-03-06T11:07:29.115Z,32.14
2023-03-06T11:10:02.609Z,32.54
2023-03-06T11:12:38.938Z,32.40
2023-03-06T11:15:15.132Z,32.08
2023-03-06T11:18:11.331Z,31.53
2023-03-06T11:20:51.943Z,31.81
2023-03-06T11:23:24.914Z,32.02
2023-03-06T11:25:57.587Z,32.32
2023-03-06T11:28:28.556Z,31.57
2023-03-06T11:31:22.599Z,31.44
2023-03-06T11:34:06.071Z,30.88
2023-03-06T11:36:43.207Z,30.47
2023-03-06T11:40:03.729Z,29.11
2023-03-06T11:42:34.146Z,27.65
2023-03-06T11:45:19.087Z,28.09
2023-03-06T11:47:49.218Z,27.60
2023-03-06T11:50:36.715Z,26.65
2023-03-06T11:53:07.024Z,28.67
2023-03-06T11:55:36.639Z,25.57
2023-03-06T11:58:22.902Z,24.06
2023-03-06T12:01:06.572Z,25.29
2023-03-06T12:03:39.577Z,26.11
2023-03-06T12:06:24.321Z,26.82
2023-03-06T12:09:14.420Z,25.93
2023-03-06T12:12:28.888Z,26.78
2023-03-06T12:15:12.938Z,25.79
2023-03-06T12:18:05.233Z,22.13
2023-03-06T12:20:37.815Z,24.05
2023-03-06T12:23:15.357Z,25.87
2023-03-06T12:25:56.566Z,25.83
2023-03-06T12:28:35.129Z,26.69
2023-03-06T12:31:36.064Z,25.79
2023-03-06T12:34:31.822Z,26.24
2023-03-06T12:37:47.157Z,26.44
2023-03-06T12:40:32.268Z,24.88
2023-03-06T12:43:20.297Z,25.21
2023-03-06T12:45:47.119Z,25.42
2023-03-06T12:48:21.280Z,24.86
2023-03-06T12:50:49.569Z,23.99
2023-03-06T12:53:26.921Z,26.24
2023-03-06T12:55:58.135Z,23.77
2023-03-06T12:58:30.704Z,22.34
2023-03-06T13:01:29.438Z,23.54
2023-03-06T13:04:24.374Z,21.83
2023-03-06T13:07:17.505Z,21.24
2023-03-06T13:10:18.500Z,22.27
2023-03-06T13:13:00.641Z,22.89
2023-03-06T13:15:45.957Z,21.24
2023-03-06T13:18:42.920Z,19.75
2023-03-06T13:21:51.134Z,20.71
2023-03-06T13:24:24.301Z,20.06
2023-03-06T13:27:10.564Z,21.89
2023-03-06T13:29:42.537Z,20.45
2023-03-06T13:32:16.396Z,20.49
2023-03-06T13:34:44.372Z,19.07
2023-03-06T13:37:16.902Z,18.98
2023-03-06T13:39:58.619Z,19.03
2023-03-06T13:42:32.222Z,18.93
2023-03-06T13:45:27.798Z,18.85
2023-03-06T13:50:47.997Z,19.31
2023-03-06T13:53:50.093Z,18.91
2023-03-06T13:56:34.848Z,19.44
2023-03-06T13:59:26.391Z,19.62
2023-03-06T14:02:44.857Z,18.95
2023-03-06T14:05:13.549Z,16.67
2023-03-06T14:08:02.692Z,15.83
2023-03-06T14:10:29.403Z,15.10
2023-03-06T14:13:30.031Z,14.97
2023-03-06T14:15:59.390Z,15.22
2023-03-06T14:18:42.614Z,14.28
2023-03-06T14:21:16.128Z,15.20
2023-03-06T14:23:43.452Z,14.95
2023-03-06T14:26:23.355Z,14.27
2023-03-06T14:28:53.510Z,15.03
2023-03-06T14:31:32.199Z,14.18
2023-03-06T14:34:00.673Z,14.08
2023-03-06T14:36:52.830Z,13.43
2023-03-06T14:39:38.605Z,13.49
2023-03-06T14:42:19.015Z,13.31
2023-03-06T14:44:48.947Z,13.15
2023-03-06T14:47:49.599Z,13.64
2023-03-06T14:50:28.126Z,13.80
2023-03-06T14:53:14.865Z,13.86
2023-03-06T14:55:52.493Z,16.30
2023-03-06T14:58:21.564Z,15.77
2023-03-06T15:00:50.199Z,15.89
2023-03-06T15:03:25.494Z,16.16
2023-03-06T15:05:52.286Z,15.24
2023-03-06T15:08:22.516Z,15.04
2023-03-06T15:11:00.764Z,15.26
2023-03-06T15:13:28.875Z,15.34
2023-03-06T15:16:00.960Z,15.37
2023-03-06T15:18:37.056Z,14.47
2023-03-06T15:21:25.850Z,13.75
2023-03-06T15:23:53.988Z,14.04
2023-03-06T15:26:31.677Z,14.11
2023-03-06T15:29:10.892Z,14.67
2023-03-06T15:31:39.592Z,14.62
2023-03-06T15:34:06.582Z,14.23
2023-03-06T15:36:53.042Z,13.37
2023-03-06T15:39:33.612Z,15.69
2023-03-06T15:42:20.360Z,16.25
2023-03-06T15:44:59.850Z,16.74
2023-03-06T15:47:26.587Z,15.67
2023-03-06T15:49:53.374Z,15.81
2023-03-06T15:52:23.332Z,14.27
2023-03-06T15:54:50.084Z,13.70
2023-03-06T15:57:27.291Z,12.96
2023-03-06T15:59:55.996Z,12.89
2023-03-06T16:02:23.900Z,12.75
2023-03-06T16:04:51.139Z,12.83
2023-03-06T16:07:19.430Z,12.32
2023-03-06T16:09:46.335Z,12.19
2023-03-06T16:12:24.176Z,12.71
2023-03-06T16:14:52.447Z,12.50
2023-03-06T16:17:24.024Z,12.08
2023-03-06T16:19:50.715Z,12.29
2023-03-06T16:22:17.410Z,11.55
2023-03-06T16:24:44.668Z,11.40
2023-03-06T16:27:16.571Z,10.95
2023-03-06T16:29:43.269Z,11.77
2023-03-06T16:32:10.629Z,11.37
2023-03-06T16:34:37.413Z,11.45
2023-03-06T16:37:04.266Z,11.54
2023-03-06T16:39:30.962Z,11.47
2023-03-06T16:41:57.672Z,11.64
2023-03-06T16:44:24.748Z,11.38
2023-03-06T16:46:51.475Z,11.63
2023-03-06T16:49:19.938Z,11.44
2023-03-06T16:51:48.819Z,11.44
2023-03-06T16:54:15.546Z,10.66
2023-03-06T16:56:42.387Z,10.27
2023-03-06T16:59:09.145Z,10.56
2023-03-06T17:01:37.092Z,10.65
2023-03-06T17:04:04.073Z,10.57
2023-03-06T17:06:34.076Z,10.22
2023-03-06T17:09:02.746Z,10.37
2023-03-06T17:11:32.596Z,10.25
2023-03-06T17:13:59.668Z,10.44
2023-03-06T17:16:28.960Z,11.16
2023-03-06T17:18:58.194Z,11.27
2023-03-06T17:21:25.294Z,10.65
2023-03-06T17:23:52.254Z,11.00
2023-03-06T17:26:19.241Z,11.24
2023-03-06T17:28:46.529Z,11.44
2023-03-06T17:31:20.898Z,10.99
2023-03-06T17:33:47.773Z,12.10
2023-03-06T17:36:14.893Z,11.03
2023-03-06T17:38:42.757Z,11.42
2023-03-06T17:41:09.888Z,11.22
2023-03-06T17:43:37.414Z,10.84
2023-03-06T17:46:05.513Z,11.84
2023-03-06T17:48:32.809Z,12.45
2023-03-06T17:50:59.939Z,13.15
2023-03-06T17:53:27.178Z,13.44
2023-03-06T17:55:54.780Z,13.13
2023-03-06T17:58:22.804Z,13.58
2023-03-06T18:00:49.549Z,14.05
2023-03-06T18:03:17.620Z,13.53
2023-03-06T18:05:45.983Z,14.19
2023-03-06T18:08:12.866Z,14.18
2023-03-06T18:10:43.398Z,14.05
2023-03-06T18:13:10.693Z,13.69
2023-03-06T18:15:41.326Z,13.95
2023-03-06T18:18:08.326Z,13.56
2023-03-06T18:20:47.131Z,13.30
2023-03-06T18:23:14.133Z,13.02
2023-03-06T18:25:40.839Z,12.70
2023-03-06T18:28:10.355Z,12.90
2023-03-06T18:30:38.339Z,12.80
2023-03-06T18:33:08.039Z,13.22
2023-03-06T18:35:36.833Z,12.52
2023-03-06T18:38:05.403Z,13.05
2023-03-06T18:40:32.089Z,12.75
2023-03-06T18:42:58.911Z,12.94
2023-03-06T18:45:25.926Z,12.58
2023-03-06T18:47:54.800Z,12.88
2023-03-06T18:50:21.619Z,12.94
2023-03-06T18:52:49.685Z,13.51
2023-03-06T18:55:17.010Z,13.42
2023-03-06T18:57:44.275Z,13.05
2023-03-06T19:00:11.454Z,13.19
2023-03-06T19:02:38.173Z,12.88
2023-03-06T19:05:06.098Z,13.32
2023-03-06T19:07:32.869Z,13.42
2023-03-06T19:10:02.392Z,13.05
2023-03-06T19:12:29.258Z,12.55
2023-03-06T19:14:56.026Z,12.36
2023-03-06T19:17:25.586Z,13.03
2023-03-06T19:19:59.420Z,13.26
2023-03-06T19:22:26.729Z,13.28
2023-03-06T19:24:59.346Z,12.65
2023-03-06T19:27:36.133Z,12.39
2023-03-06T19:30:03.099Z,13.06
2023-03-06T19:32:29.845Z,12.68
2023-03-06T19:34:56.983Z,12.65
2023-03-06T19:37:24.574Z,12.63
2023-03-06T19:39:51.324Z,12.90
2023-03-06T19:42:18.393Z,12.59
2023-03-06T19:44:45.290Z,12.70
2023-03-06T19:47:12.079Z,13.11
2023-03-06T19:49:39.046Z,13.17
2023-03-06T19:52:05.785Z,13.26
2023-03-06T19:54:34.051Z,13.52
2023-03-06T19:57:00.777Z,13.79
2023-03-06T19:59:27.633Z,13.71
2023-03-06T20:01:54.486Z,14.11
2023-03-06T20:04:21.390Z,14.43
2023-03-06T20:06:55.821Z,14.71
2023-03-06T20:09:25.220Z,13.79
2023-03-06T20:11:52.076Z,14.45
2023-03-06T20:14:18.853Z,13.94
2023-03-06T20:16:45.567Z,14.14
2023-03-06T20:19:12.602Z,14.24
2023-03-06T20:21:42.046Z,14.34
2023-03-06T20:24:09.063Z,14.30
2023-03-06T20:26:51.148Z,14.29
2023-03-06T20:29:18.438Z,14.86
2023-03-06T20:31:45.267Z,14.28
2023-03-06T20:34:12.374Z,14.36
2023-03-06T20:36:39.914Z,14.64
2023-03-06T20:39:08.537Z,14.58
2023-03-06T20:41:35.410Z,14.88
2023-03-06T20:44:06.234Z,15.27
2023-03-06T20:46:33.257Z,14.93
2023-03-06T20:49:00.047Z,15.10
2023-03-06T20:51:31.400Z,15.36
2023-03-06T20:53:58.706Z,15.99
2023-03-06T20:56:27.000Z,15.13
2023-03-06T20:58:53.762Z,15.18
2023-03-06T21:01:24.139Z,15.53
2023-03-06T21:03:51.023Z,16.04
2023-03-06T21:06:17.784Z,15.87
2023-03-06T21:08:44.648Z,15.84
2023-03-06T21:11:12.626Z,15.08
2023-03-06T21:13:40.768Z,14.92
2023-03-06T21:16:09.198Z,14.93
2023-03-06T21:18:36.816Z,15.43
2023-03-06T21:21:14.609Z,15.63
2023-03-06T21:23:41.506Z,15.36
2023-03-06T21:26:14.085Z,15.06
2023-03-06T21:28:43.120Z,15.06
2023-03-06T21:31:12.575Z,14.93
2023-03-06T21:33:39.884Z,14.14
2023-03-06T21:36:07.317Z,14.68
2023-03-06T21:38:34.088Z,14.80
2023-03-06T21:41:18.068Z,15.03
2023-03-06T21:43:48.429Z,15.15
2023-03-06T21:46:16.041Z,15.33
2023-03-06T21:48:44.140Z,14.78
2023-03-06T21:51:14.493Z,14.77
2023-03-06T21:53:42.384Z,14.93
2023-03-06T21:56:10.425Z,14.98
2023-03-06T21:58:37.184Z,15.42
2023-03-06T22:01:09.788Z,15.50
2023-03-06T22:03:36.627Z,15.10
2023-03-06T22:06:17.790Z,15.29
2023-03-06T22:08:44.805Z,14.65
2023-03-06T22:11:15.811Z,15.03
2023-03-06T22:13:46.549Z,15.31
2023-03-06T22:16:16.681Z,14.70
2023-03-06T22:18:50.479Z,15.41
2023-03-06T22:21:18.209Z,15.65
2023-03-06T22:23:49.107Z,15.81
2023-03-06T22:26:15.850Z,15.55
2023-03-06T22:28:43.984Z,15.86
2023-03-06T22:31:24.674Z,15.34
2023-03-06T22:33:52.448Z,15.59
2023-03-06T22:36:19.254Z,15.26
2023-03-06T22:38:46.849Z,15.99
2023-03-06T22:41:16.125Z,15.89
2023-03-06T22:43:44.021Z,16.33
2023-03-06T22:46:16.445Z,15.64
2023-03-06T22:48:43.315Z,15.69
2023-03-06T22:51:16.123Z,15.87
2023-03-06T22:53:43.117Z,15.63
2023-03-06T22:56:11.254Z,18.44
2023-03-06T22:58:38.333Z,16.44
2023-03-06T23:01:14.103Z,16.46
2023-03-06T23:03:42.529Z,15.78
2023-03-06T23:06:16.671Z,16.52
2023-03-06T23:08:43.395Z,16.37
2023-03-06T23:11:14.056Z,16.85
2023-03-06T23:13:41.546Z,16.36
2023-03-06T23:16:09.226Z,15.89
2023-03-06T23:18:37.231Z,16.13
2023-03-06T23:21:11.671Z,15.60
2023-03-06T23:23:40.071Z,15.57
2023-03-06T23:26:07.435Z,15.90
2023-03-06T23:28:35.377Z,15.60
2023-03-06T23:31:10.124Z,16.00
2023-03-06T23:33:37.667Z,15.42
2023-03-06T23:36:05.235Z,15.79
2023-03-06T23:38:32.036Z,15.54
2023-03-06T23:41:10.654Z,14.92
2023-03-06T23:43:37.913Z,14.78
2023-03-06T23:46:05.726Z,14.98
2023-03-06T23:48:43.945Z,15.56
2023-03-06T23:51:18.409Z,14.48
2023-03-06T23:53:48.425Z,14.37
2023-03-06T23:56:15.831Z,14.74
2023-03-06T23:58:42.586Z,14.56
